Time;durP1;ratioP1;P1;durP2;ratioP2;P2;SDS_P1;SDS_P2;PMS_P1;PMS_P2;Temp;Humidity;BMP_temperature;BMP_pressure;BME280_temperature;BME280_humidity;BME280_pressure;Samples;Min_cycle;Max_cycle;Signal;HPM_P1;HPM_P2
2022/10/16 00:02:02;;;;;;;6.03;2.38;;;12.50;99.90;;;;;;5014521;28;20044;-70
2022/10/16 00:04:27;;;;;;;5.22;2.25;;;12.50;99.90;;;;;;5047344;28;20064;-70
2022/10/16 00:06:53;;;;;;;5.18;2.00;;;12.60;99.90;;;;;;5062475;28;21272;-70
2022/10/16 00:09:19;;;;;;;8.82;2.63;;;12.60;99.90;;;;;;5013606;28;20569;-70
2022/10/16 00:11:45;;;;;;;6.20;2.30;;;12.60;99.90;;;;;;5040989;28;20392;-70
2022/10/16 00:14:13;;;;;;;7.75;2.00;;;12.60;99.90;;;;;;5059135;28;20132;-70
2022/10/16 00:16:40;;;;;;;6.88;2.45;;;12.60;99.90;;;;;;5041912;28;20048;-70
2022/10/16 00:19:05;;;;;;;7.53;2.40;;;12.60;99.90;;;;;;5061690;28;20463;-71
2022/10/16 00:21:31;;;;;;;6.43;2.08;;;12.60;99.90;;;;;;5039163;28;20068;-71
2022/10/16 00:24:08;;;;;;;6.68;2.28;;;12.60;99.90;;;;;;5027529;28;20530;-71
2022/10/16 00:26:36;;;;;;;7.72;2.33;;;12.70;99.90;;;;;;5058361;28;20059;-71
2022/10/16 00:29:02;;;;;;;7.15;2.38;;;12.60;99.90;;;;;;5053396;28;20577;-72
2022/10/16 00:31:29;;;;;;;8.20;2.50;;;12.70;99.90;;;;;;5033641;28;20071;-72
2022/10/16 00:33:55;;;;;;;5.90;1.92;;;12.70;99.90;;;;;;5038948;28;20059;-71
2022/10/16 00:36:24;;;;;;;6.78;1.92;;;12.70;99.90;;;;;;5057201;28;20044;-71
2022/10/16 00:38:54;;;;;;;7.15;2.45;;;12.70;99.90;;;;;;5059003;28;20041;-76
2022/10/16 00:41:21;;;;;;;5.57;2.15;;;12.70;99.90;;;;;;5047353;28;20040;-76
2022/10/16 00:43:57;;;;;;;8.55;2.22;;;12.70;99.90;;;;;;5048270;28;20037;-76
2022/10/16 00:46:32;;;;;;;7.63;2.20;;;12.70;99.90;;;;;;5043683;28;20052;-76
2022/10/16 00:49:13;;;;;;;7.35;2.40;;;12.60;99.90;;;;;;5054635;28;20048;-76
2022/10/16 00:51:51;;;;;;;6.55;2.00;;;12.70;99.90;;;;;;5046232;28;20590;-76
2022/10/16 00:54:26;;;;;;;9.27;2.75;;;12.60;99.90;;;;;;5038244;28;20479;-77
2022/10/16 00:56:54;;;;;;;7.15;2.22;;;12.60;99.90;;;;;;5059671;28;20399;-76
2022/10/16 00:59:27;;;;;;;6.53;1.98;;;12.60;99.90;;;;;;5045412;28;20127;-71
2022/10/16 01:01:58;;;;;;;4.82;2.00;;;12.60;99.90;;;;;;5037730;28;20049;-71
2022/10/16 01:04:25;;;;;;;6.82;2.05;;;12.60;99.90;;;;;;5061211;28;20473;-71
2022/10/16 01:07:03;;;;;;;4.90;1.92;;;12.60;99.90;;;;;;5059064;28;20068;-71
2022/10/16 01:10:16;;;;;;;5.15;1.92;;;12.60;99.90;;;;;;5044576;28;20053;-72
2022/10/16 01:12:42;;;;;;;7.93;2.38;;;12.60;99.90;;;;;;5031644;28;20430;-71
2022/10/16 01:15:20;;;;;;;8.13;2.70;;;12.60;99.90;;;;;;5062680;28;20062;-71
2022/10/16 01:17:53;;;;;;;6.65;2.50;;;12.60;99.90;;;;;;5059754;28;20518;-71
2022/10/16 01:20:27;;;;;;;7.07;2.50;;;12.60;99.90;;;;;;5041636;28;20528;-71
2022/10/16 01:23:20;;;;;;;8.18;3.03;;;12.60;99.90;;;;;;5061837;28;20048;-71
2022/10/16 01:26:04;;;;;;;5.28;2.55;;;12.60;99.90;;;;;;5078897;28;20048;-72
2022/10/16 01:28:56;;;;;;;6.05;2.35;;;12.60;99.90;;;;;;5054762;28;20454;-70
2022/10/16 01:31:25;;;;;;;6.35;2.38;;;12.60;99.90;;;;;;5056003;28;20580;-70
2022/10/16 01:34:21;;;;;;;6.53;2.30;;;12.60;99.90;;;;;;5044723;28;20608;-71
2022/10/16 01:36:57;;;;;;;9.77;2.83;;;12.60;99.90;;;;;;5058167;28;20048;-70
2022/10/16 01:39:28;;;;;;;7.32;2.13;;;12.70;99.90;;;;;;5043759;28;20124;-70
2022/10/16 01:42:05;;;;;;;6.03;2.30;;;12.70;99.90;;;;;;5059468;28;20045;-70
2022/10/16 01:44:36;;;;;;;8.85;2.30;;;12.70;99.90;;;;;;5060272;28;20040;-71
2022/10/16 01:47:03;;;;;;;6.25;1.90;;;12.80;99.90;;;;;;5041668;28;20570;-70
2022/10/16 01:49:33;;;;;;;5.95;2.15;;;12.80;99.90;;;;;;5059731;28;20435;-70
2022/10/16 01:52:02;;;;;;;5.28;1.63;;;12.80;99.90;;;;;;5034656;28;20052;-70
2022/10/16 01:54:30;;;;;;;4.50;2.08;;;12.80;99.90;;;;;;5057519;28;20369;-71
2022/10/16 01:56:57;;;;;;;5.85;2.00;;;12.80;99.90;;;;;;5039949;28;20557;-71
2022/10/16 01:59:25;;;;;;;4.65;1.85;;;12.90;99.90;;;;;;5021325;28;20047;-76
2022/10/16 02:02:00;;;;;;;4.80;1.83;;;12.90;99.90;;;;;;5053175;28;20044;-76
2022/10/16 02:04:34;;;;;;;4.40;1.85;;;12.90;99.90;;;;;;5048056;28;20064;-76
2022/10/16 02:07:00;;;;;;;5.65;2.00;;;12.90;99.90;;;;;;5037015;28;20463;-76
2022/10/16 02:09:26;;;;;;;6.50;2.03;;;12.90;99.90;;;;;;5044775;28;20049;-76
2022/10/16 02:11:58;;;;;;;6.25;2.25;;;12.90;99.90;;;;;;5046403;28;20044;-77
2022/10/16 02:14:24;;;;;;;7.47;2.33;;;12.90;99.90;;;;;;5048517;28;20053;-77
2022/10/16 02:16:50;;;;;;;5.20;2.13;;;12.90;99.90;;;;;;5034074;28;20035;-77
2022/10/16 02:19:19;;;;;;;7.47;2.13;;;12.90;99.90;;;;;;5061809;28;20053;-77
2022/10/16 02:21:54;;;;;;;5.25;2.10;;;12.90;99.90;;;;;;5042435;28;20035;-76
2022/10/16 02:24:34;;;;;;;6.72;2.15;;;12.90;99.90;;;;;;5048088;28;20447;-75
2022/10/16 02:27:31;;;;;;;4.30;2.00;;;12.90;99.90;;;;;;5065229;28;20056;-70
2022/10/16 02:30:12;;;;;;;8.13;2.20;;;12.90;99.90;;;;;;5051395;28;20553;-70
2022/10/16 02:32:42;;;;;;;6.10;2.50;;;12.90;99.90;;;;;;5065912;28;20048;-70
2022/10/16 02:35:08;;;;;;;6.80;2.92;;;12.90;99.90;;;;;;5041298;28;20075;-70
2022/10/16 02:37:35;;;;;;;5.35;2.67;;;12.90;99.90;;;;;;5053787;28;20403;-70
2022/10/16 02:40:02;;;;;;;7.60;2.50;;;12.90;99.90;;;;;;5061601;28;20045;-70
2022/10/16 02:42:33;;;;;;;8.43;2.70;;;12.90;99.90;;;;;;5048023;28;20060;-71
2022/10/16 02:45:02;;;;;;;6.95;2.45;;;12.90;99.90;;;;;;5067878;28;20558;-71
2022/10/16 02:47:28;;;;;;;5.33;3.10;;;12.90;99.90;;;;;;5053529;28;20104;-71
2022/10/16 02:49:54;;;;;;;10.20;2.65;;;12.90;99.90;;;;;;5050027;28;20135;-70
2022/10/16 02:52:20;;;;;;;6.20;2.70;;;12.90;99.90;;;;;;5053831;28;20049;-70
2022/10/16 02:54:45;;;;;;;6.68;2.72;;;12.90;99.90;;;;;;5045406;28;20513;-70
2022/10/16 02:57:11;;;;;;;5.43;3.10;;;12.90;99.90;;;;;;5047433;28;20398;-71
2022/10/16 02:59:37;;;;;;;5.38;2.70;;;12.90;99.90;;;;;;5026373;28;20056;-71
2022/10/16 03:02:03;;;;;;;6.15;2.78;;;12.90;99.90;;;;;;5064244;28;20045;-76
2022/10/16 03:04:29;;;;;;;5.68;3.00;;;12.90;99.90;;;;;;5048066;28;20060;-76
2022/10/16 03:06:55;;;;;;;6.97;2.83;;;12.90;99.90;;;;;;5057816;28;20068;-76
2022/10/16 03:09:21;;;;;;;5.60;2.40;;;12.90;99.90;;;;;;5057969;28;20059;-77
2022/10/16 03:11:46;;;;;;;7.55;2.40;;;12.90;99.90;;;;;;5055459;28;20048;-76
2022/10/16 03:14:12;;;;;;;7.80;2.88;;;12.90;99.90;;;;;;5044114;28;20384;-76
2022/10/16 03:16:38;;;;;;;4.78;2.47;;;12.90;99.90;;;;;;5056941;28;20407;-76
2022/10/16 03:19:04;;;;;;;4.72;2.75;;;12.90;99.90;;;;;;5050993;28;20485;-76
2022/10/16 03:21:30;;;;;;;7.10;2.90;;;12.80;99.90;;;;;;5043303;28;20055;-76
2022/10/16 03:23:55;;;;;;;7.32;2.90;;;12.80;99.90;;;;;;5054380;28;20032;-76
2022/10/16 03:26:21;;;;;;;5.55;2.78;;;12.80;99.90;;;;;;5037029;28;20131;-76
2022/10/16 03:28:47;;;;;;;8.38;2.70;;;12.80;99.90;;;;;;5025598;28;20045;-76
2022/10/16 03:31:12;;;;;;;6.57;2.78;;;12.80;99.90;;;;;;5072374;28;20395;-76
2022/10/16 03:33:38;;;;;;;4.35;2.30;;;12.80;99.90;;;;;;5045211;28;20048;-77
2022/10/16 03:36:04;;;;;;;5.72;2.50;;;12.80;99.90;;;;;;5023158;28;20413;-76
2022/10/16 03:38:30;;;;;;;5.10;2.33;;;12.80;99.90;;;;;;5046273;28;20049;-77
2022/10/16 03:40:55;;;;;;;6.57;2.50;;;12.80;99.90;;;;;;5039925;28;20090;-77
2022/10/16 03:43:21;;;;;;;5.55;2.40;;;12.80;99.90;;;;;;5042286;28;20051;-77
2022/10/16 03:45:47;;;;;;;6.10;2.03;;;12.90;99.90;;;;;;5024695;28;20148;-76
2022/10/16 03:48:12;;;;;;;5.70;2.70;;;12.90;99.90;;;;;;5026988;28;20139;-76
2022/10/16 03:50:38;;;;;;;5.82;2.38;;;12.90;99.90;;;;;;5044864;28;20107;-77
2022/10/16 03:53:04;;;;;;;5.13;2.63;;;12.90;99.90;;;;;;5057511;28;20041;-77
2022/10/16 03:55:30;;;;;;;6.28;2.72;;;12.90;99.90;;;;;;5041602;28;20105;-77
2022/10/16 03:57:56;;;;;;;3.58;2.30;;;12.90;99.90;;;;;;5055467;28;20894;-77
2022/10/16 04:00:22;;;;;;;6.60;2.90;;;12.90;99.90;;;;;;5052558;28;20066;-77
2022/10/16 04:02:47;;;;;;;6.10;2.63;;;12.90;99.90;;;;;;5037663;28;20041;-76
2022/10/16 04:05:14;;;;;;;4.55;2.42;;;12.80;99.90;;;;;;5033971;28;20053;-76
2022/10/16 04:07:40;;;;;;;5.22;2.53;;;12.80;99.90;;;;;;5043195;28;20055;-77
2022/10/16 04:10:06;;;;;;;5.75;2.50;;;12.80;99.90;;;;;;5059768;28;20129;-77
2022/10/16 04:12:32;;;;;;;5.43;3.00;;;12.70;99.90;;;;;;5054676;28;20509;-77
2022/10/16 04:14:57;;;;;;;7.32;3.03;;;12.70;99.90;;;;;;5043887;28;20346;-77
2022/10/16 04:17:23;;;;;;;6.00;3.13;;;12.70;99.90;;;;;;5057282;28;20554;-76
2022/10/16 04:19:49;;;;;;;6.60;3.13;;;12.70;99.90;;;;;;5060656;28;20414;-77
2022/10/16 04:22:14;;;;;;;7.18;2.90;;;12.70;99.90;;;;;;5056410;28;20048;-77
2022/10/16 04:24:40;;;;;;;7.38;3.60;;;12.70;99.90;;;;;;5065096;28;20044;-77
2022/10/16 04:27:06;;;;;;;7.85;3.42;;;12.70;99.90;;;;;;5044060;28;20456;-77
2022/10/16 04:29:32;;;;;;;6.57;3.08;;;12.70;99.90;;;;;;5042184;28;20055;-77
2022/10/16 04:31:58;;;;;;;5.95;3.35;;;12.70;99.90;;;;;;5044330;28;20035;-76
2022/10/16 04:34:23;;;;;;;8.57;3.53;;;12.70;99.90;;;;;;5050976;28;20143;-76
2022/10/16 04:36:49;;;;;;;8.85;3.85;;;12.60;99.90;;;;;;5066706;28;20114;-77
2022/10/16 04:39:15;;;;;;;6.03;3.33;;;12.60;99.90;;;;;;5046613;28;20494;-77
2022/10/16 04:41:41;;;;;;;6.15;3.22;;;12.60;99.90;;;;;;5064800;28;20051;-77
2022/10/16 04:44:07;;;;;;;6.45;3.50;;;12.50;99.90;;;;;;5048394;28;20548;-77
2022/10/16 04:46:33;;;;;;;5.50;3.38;;;12.50;99.90;;;;;;5042304;28;20483;-77
2022/10/16 04:48:59;;;;;;;7.78;3.80;;;12.50;99.90;;;;;;5054286;28;20047;-76
2022/10/16 04:51:26;;;;;;;6.72;3.65;;;12.50;99.90;;;;;;5053324;28;20551;-71
2022/10/16 04:53:51;;;;;;;8.68;3.38;;;12.50;99.90;;;;;;5058503;28;20522;-76
2022/10/16 04:56:17;;;;;;;4.78;3.50;;;12.50;99.90;;;;;;5050981;28;20106;-77
2022/10/16 04:58:43;;;;;;;6.85;3.38;;;12.50;99.90;;;;;;5059655;28;20037;-77
2022/10/16 05:01:09;;;;;;;6.45;3.45;;;12.50;99.90;;;;;;5052508;28;20048;-76
2022/10/16 05:03:35;;;;;;;7.22;3.80;;;12.60;99.90;;;;;;5058406;28;20041;-76
2022/10/16 05:06:00;;;;;;;6.40;3.38;;;12.60;99.90;;;;;;5054480;28;20063;-77
2022/10/16 05:08:26;;;;;;;6.88;3.50;;;12.60;99.90;;;;;;5053871;28;20404;-77
2022/10/16 05:10:52;;;;;;;7.78;3.47;;;12.70;99.90;;;;;;5066876;28;20434;-77
2022/10/16 05:13:17;;;;;;;7.93;4.07;;;12.70;99.90;;;;;;5049250;28;20037;-77
2022/10/16 05:15:48;;;;;;;8.20;3.85;;;12.70;99.90;;;;;;5051097;28;20067;-76
2022/10/16 05:18:14;;;;;;;;;;;12.70;99.90;;;;;;5036278;28;20084;-77
2022/10/16 05:20:39;;;;;;;7.65;4.03;;;12.70;99.90;;;;;;5048032;28;19968;-76
2022/10/16 05:23:05;;;;;;;7.95;4.15;;;12.60;99.90;;;;;;5039507;28;20098;-77
2022/10/16 05:25:31;;;;;;;8.63;3.85;;;12.70;99.90;;;;;;5037486;28;20055;-77
2022/10/16 05:27:56;;;;;;;8.18;4.30;;;12.70;99.90;;;;;;5047277;28;20045;-78
2022/10/16 05:30:22;;;;;;;6.43;3.53;;;12.70;99.90;;;;;;5051605;28;20040;-76
2022/10/16 05:32:49;;;;;;;4.82;3.40;;;12.70;99.90;;;;;;5053995;28;20453;-76
2022/10/16 05:35:19;;;;;;;8.60;4.35;;;12.70;99.90;;;;;;5055686;28;20052;-76
2022/10/16 05:37:45;;;;;;;5.65;4.13;;;12.70;99.90;;;;;;5052892;28;20614;-76
2022/10/16 05:40:11;;;;;;;7.30;4.45;;;12.70;99.90;;;;;;5060829;28;20040;-76
2022/10/16 05:42:37;;;;;;;5.90;4.40;;;12.80;99.90;;;;;;5074587;28;20242;-76
2022/10/16 05:45:08;;;;;;;7.15;4.25;;;12.80;99.90;;;;;;5077200;28;20131;-71
2022/10/16 05:47:34;;;;;;;7.20;4.18;;;12.80;99.90;;;;;;5034621;28;20060;-71
2022/10/16 05:50:00;;;;;;;7.40;4.07;;;12.80;99.90;;;;;;5056826;28;20067;-71
2022/10/16 05:52:27;;;;;;;7.63;4.35;;;12.80;99.90;;;;;;5040887;28;20088;-72
2022/10/16 05:54:52;;;;;;;9.80;4.72;;;12.80;99.90;;;;;;5058903;28;20033;-71
2022/10/16 05:57:18;;;;;;;6.85;3.90;;;12.80;99.90;;;;;;5028921;28;20527;-71
2022/10/16 05:59:44;;;;;;;6.88;4.13;;;12.80;99.90;;;;;;5041569;28;20391;-70
2022/10/16 06:02:13;;;;;;;7.88;4.25;;;12.90;99.90;;;;;;5038068;28;20040;-71
2022/10/16 06:04:39;;;;;;;8.88;4.22;;;12.90;99.90;;;;;;5028066;28;567469;-71
2022/10/16 06:07:04;;;;;;;6.15;4.10;;;12.90;99.90;;;;;;5048608;28;20514;-71
2022/10/16 06:09:30;;;;;;;6.90;4.85;;;12.90;99.90;;;;;;5057239;28;20131;-71
2022/10/16 06:11:56;;;;;;;6.68;3.95;;;12.90;99.90;;;;;;5055783;28;20053;-71
2022/10/16 06:14:22;;;;;;;6.40;4.30;;;12.90;99.90;;;;;;5036340;28;20049;-71
2022/10/16 06:16:48;;;;;;;8.10;4.18;;;12.90;99.90;;;;;;5035681;28;20151;-71
2022/10/16 06:19:14;;;;;;;6.07;3.92;;;12.80;99.90;;;;;;5056692;28;20380;-71
2022/10/16 06:21:40;;;;;;;7.07;3.88;;;12.80;99.90;;;;;;5043805;28;20047;-70
2022/10/16 06:24:05;;;;;;;6.32;3.95;;;12.80;99.90;;;;;;5057929;28;20395;-76
2022/10/16 06:26:31;;;;;;;6.15;4.10;;;12.80;99.90;;;;;;5059524;28;20040;-76
2022/10/16 06:28:59;;;;;;;8.05;4.15;;;12.80;99.90;;;;;;5032037;28;20043;-76
2022/10/16 06:31:27;;;;;;;6.93;4.10;;;12.80;99.90;;;;;;5053852;28;20045;-76
2022/10/16 06:33:53;;;;;;;8.82;3.72;;;12.80;99.90;;;;;;5049058;28;20072;-76
2022/10/16 06:36:20;;;;;;;5.97;3.50;;;12.80;99.90;;;;;;5058741;28;20088;-76
2022/10/16 06:38:46;;;;;;;8.82;4.78;;;12.80;99.90;;;;;;5054635;28;20159;-76
2022/10/16 06:41:14;;;;;;;6.63;3.50;;;12.80;99.90;;;;;;5057668;28;20087;-76
2022/10/16 06:43:41;;;;;;;7.07;3.42;;;12.80;99.90;;;;;;5043733;28;20585;-76
2022/10/16 06:46:09;;;;;;;6.40;3.30;;;12.90;99.90;;;;;;5024081;28;20102;-76
2022/10/16 06:48:35;;;;;;;5.97;3.20;;;12.90;99.90;;;;;;5054417;28;20044;-76
2022/10/16 06:51:09;;;;;;;7.32;3.50;;;12.90;99.90;;;;;;5050694;28;20414;-76
2022/10/16 06:53:37;;;;;;;7.05;3.20;;;12.90;99.90;;;;;;5056252;28;20045;-77
2022/10/16 06:56:11;;;;;;;5.78;3.40;;;12.90;99.90;;;;;;5033666;28;20464;-71
2022/10/16 06:58:37;;;;;;;7.47;3.60;;;12.90;99.90;;;;;;5044938;28;20043;-76
2022/10/16 07:01:04;;;;;;;4.70;2.80;;;12.90;99.90;;;;;;5050678;28;20040;-76
2022/10/16 07:03:30;;;;;;;7.43;3.50;;;13.00;99.90;;;;;;5057128;28;20115;-76
2022/10/16 07:05:56;;;;;;;7.72;2.97;;;13.00;99.90;;;;;;5055617;28;20097;-76
2022/10/16 07:08:22;;;;;;;5.25;2.90;;;13.00;99.90;;;;;;5058432;28;20048;-77
2022/10/16 07:10:48;;;;;;;5.28;2.83;;;13.00;99.90;;;;;;5051834;28;20043;-76
2022/10/16 07:13:14;;;;;;;5.07;2.70;;;13.00;99.90;;;;;;5055143;28;20110;-77
2022/10/16 07:15:40;;;;;;;6.72;3.22;;;13.00;99.90;;;;;;5039078;28;20382;-76
2022/10/16 07:18:06;;;;;;;6.50;3.13;;;13.00;99.90;;;;;;5039117;28;20040;-77
2022/10/16 07:20:32;;;;;;;5.95;2.72;;;13.00;99.90;;;;;;5040217;28;20049;-76
2022/10/16 07:22:58;;;;;;;5.22;2.50;;;13.10;99.90;;;;;;5060082;28;20040;-76
2022/10/16 07:25:24;;;;;;;6.55;3.00;;;13.10;99.90;;;;;;5040494;28;20467;-76
2022/10/16 07:27:50;;;;;;;5.10;2.75;;;13.20;99.90;;;;;;5060582;28;20082;-76
2022/10/16 07:30:16;;;;;;;7.25;3.13;;;13.20;99.90;;;;;;5023780;28;20072;-77
2022/10/16 07:32:42;;;;;;;7.75;3.05;;;13.20;99.90;;;;;;5035577;28;20052;-75
2022/10/16 07:35:08;;;;;;;5.68;2.35;;;13.20;99.90;;;;;;5042164;28;20072;-76
2022/10/16 07:37:33;;;;;;;7.55;2.80;;;13.20;99.90;;;;;;5060833;28;20110;-76
2022/10/16 07:39:59;;;;;;;5.40;2.92;;;13.30;99.90;;;;;;5025997;28;20037;-77
2022/10/16 07:42:25;;;;;;;5.15;2.60;;;13.30;99.90;;;;;;5026857;28;20087;-76
2022/10/16 07:44:50;;;;;;;8.10;3.28;;;13.30;99.90;;;;;;5047062;28;20051;-76
2022/10/16 07:47:16;;;;;;;6.53;2.83;;;13.30;99.90;;;;;;5023731;28;20041;-76
2022/10/16 07:49:42;;;;;;;5.90;2.47;;;13.40;99.90;;;;;;5059139;28;20609;-77
2022/10/16 07:52:08;;;;;;;4.15;2.45;;;13.30;99.90;;;;;;5061928;28;20898;-76
2022/10/16 07:54:33;;;;;;;5.78;2.20;;;13.40;99.90;;;;;;5055595;28;20526;-77
2022/10/16 07:56:59;;;;;;;6.38;2.60;;;13.40;99.90;;;;;;5056673;28;20044;-76
2022/10/16 07:59:25;;;;;;;5.40;2.10;;;13.40;99.90;;;;;;5053032;28;20047;-76
2022/10/16 08:01:51;;;;;;;5.28;2.15;;;13.40;99.90;;;;;;5058811;28;20048;-77
2022/10/16 08:04:16;;;;;;;4.03;1.85;;;13.50;99.90;;;;;;5026673;28;20044;-76
2022/10/16 08:06:42;;;;;;;5.20;2.08;;;13.50;99.90;;;;;;5025060;28;20350;-76
2022/10/16 08:09:08;;;;;;;8.23;2.10;;;13.60;99.90;;;;;;5025560;28;20040;-76
2022/10/16 08:11:34;;;;;;;5.13;1.60;;;13.60;99.90;;;;;;5042019;28;20041;-77
2022/10/16 08:14:03;;;;;;;5.60;1.63;;;13.60;99.90;;;;;;5078183;28;20041;-77
2022/10/16 08:16:31;;;;;;;5.40;1.63;;;13.70;99.90;;;;;;5057718;28;20044;-76
2022/10/16 08:18:57;;;;;;;6.80;1.85;;;13.80;99.90;;;;;;5024741;28;20124;-76
2022/10/16 08:21:23;;;;;;;6.78;1.50;;;13.90;99.90;;;;;;5040742;28;20123;-75
2022/10/16 08:23:50;;;;;;;5.75;1.40;;;13.90;99.90;;;;;;5036512;28;20045;-78
2022/10/16 08:26:16;;;;;;;4.18;1.50;;;13.90;99.90;;;;;;5057622;28;20044;-77
2022/10/16 08:28:42;;;;;;;5.80;1.60;;;13.90;99.90;;;;;;5036068;28;20041;-76
2022/10/16 08:31:12;;;;;;;7.03;1.65;;;14.00;99.90;;;;;;5043951;28;20071;-77
2022/10/16 08:33:40;;;;;;;4.32;1.30;;;14.10;99.90;;;;;;5057179;28;20506;-77
2022/10/16 08:36:06;;;;;;;4.00;1.13;;;14.20;99.90;;;;;;5042854;28;20040;-77
2022/10/16 08:38:33;;;;;;;3.80;1.38;;;14.30;99.90;;;;;;5060237;28;20041;-77
2022/10/16 08:41:27;;;;;;;6.55;1.55;;;14.40;99.90;;;;;;5043192;28;20076;-77
2022/10/16 08:44:17;;;;;;;3.90;1.38;;;14.50;99.90;;;;;;5039733;28;20115;-77
2022/10/16 08:46:55;;;;;;;6.05;1.25;;;14.60;99.90;;;;;;5059831;28;20483;-76
2022/10/16 08:49:24;;;;;;;5.35;1.60;;;14.60;99.90;;;;;;5060683;28;20056;-76
2022/10/16 08:51:50;;;;;;;6.22;2.10;;;14.60;99.90;;;;;;5038662;28;20083;-76
2022/10/16 08:54:19;;;;;;;4.28;1.52;;;14.70;99.90;;;;;;5037883;28;20090;-77
2022/10/16 08:56:45;;;;;;;5.55;1.88;;;14.60;99.90;;;;;;5041716;28;20083;-76
2022/10/16 08:59:13;;;;;;;4.72;1.83;;;14.60;99.90;;;;;;5059680;28;20102;-76
2022/10/16 09:01:44;;;;;;;5.68;1.88;;;14.60;99.90;;;;;;5058429;28;20133;-77
2022/10/16 09:04:37;;;;;;;5.28;2.30;;;14.60;99.90;;;;;;5044817;28;20037;-76
2022/10/16 09:07:06;;;;;;;5.60;2.30;;;14.60;99.90;;;;;;5054535;28;20052;-76
2022/10/16 09:09:47;;;;;;;6.35;2.40;;;14.60;99.90;;;;;;5060126;28;20059;-76
2022/10/16 09:12:53;;;;;;;6.97;2.25;;;14.70;99.90;;;;;;5044700;28;20040;-76
2022/10/16 09:15:30;;;;;;;9.75;2.85;;;14.80;99.90;;;;;;5039992;28;20053;-75
2022/10/16 09:18:17;;;;;;;5.80;2.17;;;14.90;99.90;;;;;;5057909;28;20220;-78
2022/10/16 09:21:11;;;;;;;7.25;2.20;;;15.00;99.90;;;;;;5057337;28;20541;-77
2022/10/16 09:23:38;;;;;;;8.60;2.20;;;15.00;99.90;;;;;;5058203;28;20124;-76
2022/10/16 09:26:05;;;;;;;9.13;2.42;;;15.10;99.90;;;;;;5040666;28;20044;-76
2022/10/16 09:28:31;;;;;;;6.57;2.20;;;15.20;99.90;;;;;;5058814;28;20056;-78
2022/10/16 09:30:57;;;;;;;9.00;2.05;;;15.30;99.90;;;;;;5056310;28;20449;-76
2022/10/16 09:33:29;;;;;;;11.45;2.35;;;15.30;99.90;;;;;;5063335;28;20051;-77
2022/10/16 09:35:58;;;;;;;9.23;2.05;;;15.40;99.90;;;;;;5040395;28;20048;-76
2022/10/16 09:38:30;;;;;;;16.10;2.70;;;15.40;99.90;;;;;;5040314;28;20063;-77
2022/10/16 09:40:58;;;;;;;8.80;1.98;;;15.50;99.90;;;;;;5058119;28;20079;-77
2022/10/16 09:43:41;;;;;;;10.20;2.30;;;15.50;99.90;;;;;;5057768;28;20079;-77
2022/10/16 09:46:09;;;;;;;8.70;2.00;;;15.60;99.90;;;;;;5055404;28;20048;-77
2022/10/16 09:48:34;;;;;;;10.02;2.47;;;15.60;99.90;;;;;;5056480;28;20056;-77
2022/10/16 09:51:03;;;;;;;7.68;1.80;;;15.60;99.90;;;;;;5060953;28;20044;-78
2022/10/16 09:53:44;;;;;;;10.20;1.90;;;15.60;99.90;;;;;;5040103;28;20098;-76
2022/10/16 09:56:20;;;;;;;8.80;2.20;;;15.70;99.90;;;;;;5056942;28;20295;-76
2022/10/16 09:58:52;;;;;;;13.40;2.53;;;15.80;99.90;;;;;;5056314;28;20113;-76
2022/10/16 10:01:19;;;;;;;6.80;1.88;;;15.80;99.90;;;;;;5059710;28;20052;-77
2022/10/16 10:03:46;;;;;;;7.57;2.40;;;15.90;99.90;;;;;;5059423;28;20119;-76
2022/10/16 10:06:25;;;;;;;9.68;1.90;;;16.00;99.90;;;;;;5059571;28;20551;-77
2022/10/16 10:08:55;;;;;;;8.30;1.95;;;16.10;99.90;;;;;;5060333;28;20333;-77
2022/10/16 10:11:43;;;;;;;8.23;2.05;;;16.10;99.90;;;;;;5057033;28;20095;-78
2022/10/16 10:14:23;;;;;;;10.10;2.22;;;16.00;99.90;;;;;;5042294;28;20050;-77
2022/10/16 10:16:51;;;;;;;7.95;1.67;;;16.00;99.90;;;;;;5054253;28;20505;-76
2022/10/16 10:19:22;;;;;;;8.40;2.08;;;15.90;99.90;;;;;;5042574;28;20316;-77
2022/10/16 10:21:49;;;;;;;11.50;1.92;;;16.00;99.90;;;;;;5042635;28;20047;-77
2022/10/16 10:24:16;;;;;;;11.43;2.15;;;16.10;99.90;;;;;;5058974;28;20036;-77
2022/10/16 10:27:07;;;;;;;9.68;2.30;;;16.20;99.90;;;;;;5053727;28;20135;-77
2022/10/16 10:29:42;;;;;;;9.50;2.08;;;16.20;99.90;;;;;;5042212;28;20074;-76
2022/10/16 10:32:13;;;;;;;12.02;2.15;;;16.10;99.90;;;;;;5053695;28;20048;-78
2022/10/16 10:35:18;;;;;;;10.45;1.98;;;16.10;99.90;;;;;;5060599;28;20445;-76
2022/10/16 10:37:58;;;;;;;11.35;2.33;;;16.20;99.90;;;;;;5057109;28;20041;-77
2022/10/16 10:40:47;;;;;;;9.90;2.23;;;16.20;99.90;;;;;;5055038;28;20098;-78
2022/10/16 10:43:52;;;;;;;8.90;2.00;;;16.20;99.90;;;;;;5038727;28;20091;-78
2022/10/16 10:46:45;;;;;;;11.65;2.90;;;16.20;99.90;;;;;;5037376;28;20113;-77
2022/10/16 10:49:32;;;;;;;13.57;2.20;;;16.20;99.90;;;;;;5039531;28;20099;-78
2022/10/16 10:52:10;;;;;;;10.40;1.85;;;16.20;99.90;;;;;;5075638;28;20079;-78
2022/10/16 10:54:51;;;;;;;10.00;2.00;;;16.10;99.90;;;;;;5054424;28;20053;-77
2022/10/16 10:57:25;;;;;;;8.98;2.03;;;16.10;99.90;;;;;;5035052;28;20053;-77
2022/10/16 11:00:11;;;;;;;11.30;2.20;;;16.10;99.90;;;;;;5058148;28;20044;-78
2022/10/16 11:02:44;;;;;;;11.75;2.88;;;16.20;99.90;;;;;;5043511;28;20135;-77
2022/10/16 11:05:33;;;;;;;7.68;2.10;;;16.30;99.90;;;;;;5055892;28;20052;-79
2022/10/16 11:08:03;;;;;;;10.95;2.28;;;16.40;99.90;;;;;;5039575;28;20087;-78
2022/10/16 11:10:59;;;;;;;11.77;2.47;;;16.30;99.90;;;;;;5051011;28;20071;-78
2022/10/16 11:13:45;;;;;;;8.82;2.00;;;16.30;99.90;;;;;;5050315;28;20419;-72
2022/10/16 11:16:20;;;;;;;10.90;2.55;;;16.20;99.90;;;;;;5055557;28;20059;-71
2022/10/16 11:19:13;;;;;;;9.70;2.30;;;16.20;99.90;;;;;;5040697;28;20071;-71
2022/10/16 11:22:21;;;;;;;8.30;1.92;;;16.10;99.90;;;;;;5060422;28;20507;-71
2022/10/16 11:24:53;;;;;;;9.43;2.35;;;16.10;99.90;;;;;;5037305;28;20067;-71
2022/10/16 11:27:34;;;;;;;12.32;2.70;;;16.20;99.90;;;;;;5058165;28;20467;-71
2022/10/16 11:30:03;;;;;;;13.32;2.70;;;16.30;99.90;;;;;;5053548;28;20159;-73
2022/10/16 11:32:35;;;;;;;10.88;2.58;;;16.40;99.90;;;;;;5073143;28;20041;-72
2022/10/16 11:35:12;;;;;;;9.60;2.08;;;16.60;99.90;;;;;;5051643;28;20139;-71
2022/10/16 11:37:43;;;;;;;8.25;2.10;;;16.70;99.90;;;;;;5052208;28;20048;-71
2022/10/16 11:40:33;;;;;;;9.88;2.10;;;16.70;99.90;;;;;;5072855;28;20052;-78
2022/10/16 11:43:13;;;;;;;10.73;2.08;;;16.70;99.90;;;;;;5037793;28;20103;-79
2022/10/16 11:45:49;;;;;;;11.68;2.40;;;16.60;99.90;;;;;;5057154;28;20424;-79
2022/10/16 11:48:19;;;;;;;10.82;2.33;;;16.50;99.90;;;;;;5073163;28;20055;-79
2022/10/16 11:51:19;;;;;;;9.48;1.98;;;16.30;99.90;;;;;;5055756;28;20045;-78
2022/10/16 11:53:53;;;;;;;11.57;2.50;;;16.20;99.90;;;;;;5059120;28;20047;-71
2022/10/16 11:56:21;;;;;;;9.82;2.22;;;16.10;99.90;;;;;;5050257;28;20055;-71
2022/10/16 11:59:02;;;;;;;11.52;2.55;;;16.00;99.90;;;;;;5041110;28;20040;-71
2022/10/16 12:01:56;;;;;;;11.00;2.13;;;16.10;99.90;;;;;;5056546;28;20521;-71
2022/10/16 12:04:33;;;;;;;11.20;2.47;;;16.30;99.90;;;;;;5055335;28;20052;-77
2022/10/16 12:06:59;;;;;;;10.20;1.90;;;16.40;99.90;;;;;;5056439;28;20048;-77
2022/10/16 12:09:31;;;;;;;10.57;2.40;;;16.50;99.90;;;;;;5053772;28;20455;-77
2022/10/16 12:11:57;;;;;;;11.18;1.95;;;16.60;99.90;;;;;;5054730;28;20055;-78
2022/10/16 12:14:32;;;;;;;9.85;1.90;;;16.70;99.90;;;;;;5056402;28;20528;-78
2022/10/16 12:17:24;;;;;;;13.40;2.13;;;16.80;99.90;;;;;;5046014;28;20098;-77
2022/10/16 12:20:12;;;;;;;11.70;2.05;;;16.80;99.90;;;;;;5041460;28;20048;-78
2022/10/16 12:22:54;;;;;;;9.73;2.25;;;16.90;99.90;;;;;;5057306;28;20060;-78
2022/10/16 12:25:29;;;;;;;11.48;2.10;;;16.90;99.90;;;;;;5043472;28;20040;-77
2022/10/16 12:27:57;;;;;;;10.48;2.13;;;16.90;99.90;;;;;;5076435;28;20048;-78
2022/10/16 12:30:26;;;;;;;11.15;2.25;;;16.90;99.90;;;;;;5045736;28;20119;-78
2022/10/16 12:32:58;;;;;;;12.98;2.10;;;16.90;99.90;;;;;;5061457;28;20047;-80
2022/10/16 12:35:31;;;;;;;10.27;2.25;;;17.00;99.90;;;;;;5059265;28;20040;-77
2022/10/16 12:38:28;;;;;;;6.60;1.42;;;17.00;99.90;;;;;;5044506;28;20052;-77
2022/10/16 12:41:08;;;;;;;10.30;2.10;;;17.00;99.90;;;;;;5048406;28;20391;-78
2022/10/16 12:43:42;;;;;;;8.80;1.92;;;16.90;99.90;;;;;;5059896;28;20410;-77
2022/10/16 12:46:07;;;;;;;10.80;1.88;;;16.80;99.90;;;;;;5038228;28;20033;-78
2022/10/16 12:48:34;;;;;;;9.98;2.15;;;16.90;99.90;;;;;;5044445;28;20048;-77
2022/10/16 12:51:34;;;;;;;9.77;1.77;;;17.00;99.90;;;;;;5062206;28;20506;-77
2022/10/16 12:54:00;;;;;;;;;;;17.00;99.90;;;;;;5061354;28;20052;-77
2022/10/16 12:56:59;;;;;;;11.57;2.40;;;17.00;99.90;;;;;;5057615;28;19927;-71
2022/10/16 12:59:33;;;;;;;6.85;1.67;;;17.00;99.90;;;;;;5057904;28;20529;-71
2022/10/16 13:02:41;;;;;;;8.18;1.92;;;16.90;99.90;;;;;;5044049;28;20105;-71
2022/10/16 13:05:41;;;;;;;7.97;1.45;;;16.80;99.90;;;;;;5061664;28;20083;-70
2022/10/16 13:08:34;;;;;;;9.52;1.65;;;16.60;99.90;;;;;;5055168;28;20393;-71